Time;durP1;ratioP1;P1;durP2;ratioP2;P2;SDS_P1;SDS_P2;PMS_P1;PMS_P2;Temp;Humidity;BMP_temperature;BMP_pressure;BME280_temperature;BME280_humidity;BME280_pressure;Samples;Min_cycle;Max_cycle;Signal;HPM_P1;HPM_P2
2023/03/31 00:04:37;;;;;;;19.63;4.25;;;;;;;8.78;100.00;100286.88;10368463;28;20128;-77
2023/03/31 00:09:39;;;;;;;4.32;2.30;;;;;;;8.72;100.00;100283.13;10355319;28;20121;-76
2023/03/31 00:14:40;;;;;;;8.32;2.78;;;;;;;8.64;100.00;100261.88;10309822;28;20050;-76
2023/03/31 00:19:41;;;;;;;6.68;2.10;;;;;;;8.62;100.00;100263.53;10373651;28;20037;-75
2023/03/31 00:24:41;;;;;;;6.68;2.50;;;;;;;8.63;100.00;100232.31;10366965;28;20121;-76
2023/03/31 00:29:42;;;;;;;12.35;2.80;;;;;;;8.55;100.00;100224.94;10366242;28;20130;-75
2023/03/31 00:34:45;;;;;;;8.18;2.25;;;;;;;8.45;100.00;100213.19;10364874;28;20195;-76
2023/03/31 00:39:45;;;;;;;13.77;3.65;;;;;;;8.40;100.00;100199.91;10365565;28;20038;-75
2023/03/31 00:45:14;;;;;;;5.80;2.55;;;;;;;8.38;100.00;100183.31;10365150;28;20099;-76
2023/03/31 00:50:17;;;;;;;5.75;3.03;;;;;;;8.31;100.00;100160.38;10369467;28;20477;-76
2023/03/31 00:55:20;;;;;;;4.88;2.20;;;;;;;8.25;100.00;100147.06;10385009;28;20524;-75
2023/03/31 01:00:22;;;;;;;11.63;4.70;;;;;;;8.07;100.00;100138.50;10348158;28;20046;-75
2023/03/31 01:05:49;;;;;;;10.07;3.60;;;;;;;8.05;100.00;100123.59;10364455;28;20478;-75
2023/03/31 01:10:55;;;;;;;9.13;3.53;;;;;;;8.06;100.00;100126.28;10341609;28;20034;-75
2023/03/31 01:15:55;;;;;;;6.50;2.55;;;;;;;8.01;100.00;100119.06;10364525;28;20038;-75
2023/03/31 01:21:29;;;;;;;13.25;5.65;;;;;;;8.10;100.00;100101.25;10345381;28;20034;-75
2023/03/31 01:26:51;;;;;;;8.52;3.22;;;;;;;8.12;100.00;100094.38;10412163;28;20438;-76
2023/03/31 01:32:16;;;;;;;15.88;5.20;;;;;;;8.29;100.00;100092.53;10354773;28;20049;-75
2023/03/31 01:37:29;;;;;;;16.88;5.38;;;;;;;8.47;100.00;100076.81;10382081;28;20054;-75
2023/03/31 01:43:06;;;;;;;13.15;5.05;;;;;;;8.57;100.00;100072.00;10364614;28;20521;-76
2023/03/31 01:48:13;;;;;;;12.43;4.00;;;;;;;8.65;100.00;100061.09;10362693;28;20490;-75
2023/03/31 01:53:29;;;;;;;15.40;4.65;;;;;;;8.64;100.00;100042.75;10360448;28;20177;-75
2023/03/31 01:58:35;;;;;;;13.00;5.40;;;;;;;8.70;100.00;100026.50;10370025;28;20041;-76
2023/03/31 02:03:42;;;;;;;21.52;6.90;;;;;;;8.77;100.00;100018.97;10321153;28;20501;-76
2023/03/31 02:08:48;;;;;;;20.10;5.05;;;;;;;8.79;100.00;99999.03;10317143;28;20041;-76
2023/03/31 02:13:49;;;;;;;15.63;5.05;;;;;;;8.76;100.00;99978.03;10360520;28;20069;-76
2023/03/31 02:18:51;;;;;;;18.10;6.72;;;;;;;8.74;100.00;99955.34;10360265;28;20042;-75
2023/03/31 02:23:52;;;;;;;;;;;;;;;8.78;100.00;99932.03;10324830;28;20398;-75
2023/03/31 02:28:52;;;;;;;14.30;4.93;;;;;;;8.82;100.00;99909.59;10359151;28;19928;-75
2023/03/31 02:33:53;;;;;;;15.25;4.40;;;;;;;8.76;100.00;99915.44;10376814;28;20308;-75
2023/03/31 02:38:59;;;;;;;11.70;4.53;;;;;;;8.77;100.00;99880.69;10360955;28;20095;-76
2023/03/31 02:44:00;;;;;;;25.10;5.13;;;;;;;8.73;100.00;99876.19;10304128;28;20038;-75
2023/03/31 02:49:01;;;;;;;20.58;5.55;;;;;;;8.70;100.00;99842.16;10322388;28;20056;-75
2023/03/31 02:54:17;;;;;;;24.60;7.47;;;;;;;8.65;100.00;99838.47;10332370;28;20576;-75
2023/03/31 02:59:33;;;;;;;17.48;4.95;;;;;;;8.65;100.00;99815.00;10343206;28;20113;-76
2023/03/31 03:04:36;;;;;;;17.55;3.97;;;;;;;8.68;100.00;99804.69;10361893;28;20096;-75
2023/03/31 03:09:44;;;;;;;12.55;3.90;;;;;;;8.64;100.00;99785.44;10360167;28;20176;-75
2023/03/31 03:14:51;;;;;;;8.20;3.55;;;;;;;8.60;100.00;99795.66;10360068;28;20064;-75
2023/03/31 03:19:55;;;;;;;13.95;4.07;;;;;;;8.56;100.00;99772.91;10358066;28;20489;-75
2023/03/31 03:24:56;;;;;;;18.83;4.20;;;;;;;8.57;100.00;99778.19;10359182;28;20124;-75
2023/03/31 03:29:56;;;;;;;7.05;2.58;;;;;;;8.55;100.00;99766.81;10358153;28;20037;-77
2023/03/31 03:34:57;;;;;;;8.75;3.63;;;;;;;8.44;100.00;99768.97;10358507;28;20034;-76
2023/03/31 03:39:57;;;;;;;15.57;3.92;;;;;;;8.42;100.00;99744.56;10361102;28;20125;-76
2023/03/31 03:44:58;;;;;;;18.85;4.28;;;;;;;8.43;100.00;99724.59;10366645;28;20040;-75
2023/03/31 03:49:58;;;;;;;12.23;3.40;;;;;;;8.41;100.00;99689.75;10378070;28;20061;-74
2023/03/31 03:55:00;;;;;;;12.57;4.20;;;;;;;8.36;100.00;99674.81;10356562;28;20030;-75
2023/03/31 04:00:01;;;;;;;14.70;3.88;;;;;;;8.42;100.00;99645.47;10359434;28;20042;-75
2023/03/31 04:05:01;;;;;;;8.40;2.90;;;;;;;8.44;100.00;99627.28;10358710;28;20132;-74
2023/03/31 04:10:02;;;;;;;6.00;2.88;;;;;;;8.50;100.00;99624.94;10358516;28;20048;-74
2023/03/31 04:15:03;;;;;;;6.25;2.45;;;;;;;8.47;100.00;99604.81;10358117;28;20485;-75
2023/03/31 04:20:06;;;;;;;6.95;2.50;;;;;;;8.40;100.00;99591.50;10364172;28;20029;-76
2023/03/31 04:25:15;;;;;;;5.60;1.80;;;;;;;8.18;100.00;99582.91;10411785;28;20115;-76
2023/03/31 04:30:22;;;;;;;6.78;3.22;;;;;;;8.19;100.00;99582.06;10395587;28;20791;-76
2023/03/31 04:35:23;;;;;;;5.07;2.67;;;;;;;8.22;100.00;99580.47;10391803;28;20042;-75
2023/03/31 04:40:24;;;;;;;14.32;2.42;;;;;;;8.28;100.00;99572.00;10374548;28;20045;-74
2023/03/31 04:45:25;;;;;;;14.10;4.22;;;;;;;8.31;100.00;99565.97;10386085;28;20034;-75
2023/03/31 04:50:25;;;;;;;7.85;2.00;;;;;;;8.33;100.00;99560.00;10376734;28;20132;-74
2023/03/31 04:55:26;;;;;;;5.25;2.75;;;;;;;8.28;100.00;99538.09;10361610;28;20112;-74
2023/03/31 05:00:27;;;;;;;9.35;1.67;;;;;;;8.24;100.00;99538.81;10380782;28;20080;-75
2023/03/31 05:05:29;;;;;;;9.10;2.63;;;;;;;8.33;100.00;99531.34;10370113;28;20417;-75
2023/03/31 05:10:30;;;;;;;7.45;1.80;;;;;;;8.27;100.00;99520.69;10376053;28;20161;-74
2023/03/31 05:15:31;;;;;;;6.38;1.42;;;;;;;8.23;100.00;99521.41;10376057;28;20037;-75
2023/03/31 05:20:32;;;;;;;4.72;1.48;;;;;;;8.31;100.00;99503.41;10375534;28;20128;-74
2023/03/31 05:25:32;;;;;;;6.18;2.58;;;;;;;8.34;100.00;99500.91;10349261;28;20477;-75
2023/03/31 05:30:33;;;;;;;7.13;2.13;;;;;;;8.38;100.00;99494.97;10380850;28;20046;-75
2023/03/31 05:35:33;;;;;;;5.43;2.10;;;;;;;8.29;100.00;99492.03;10361036;28;20396;-75
2023/03/31 05:40:34;;;;;;;5.85;2.00;;;;;;;8.27;100.00;99491.09;10363509;28;20078;-75
2023/03/31 05:45:35;;;;;;;7.53;2.90;;;;;;;8.25;100.00;99492.78;10384376;28;20030;-75
2023/03/31 05:50:35;;;;;;;13.95;2.22;;;;;;;8.25;100.00;99483.25;10375876;28;20045;-75
2023/03/31 05:55:36;;;;;;;6.18;2.83;;;;;;;8.17;100.00;99461.25;10378228;28;20510;-76
2023/03/31 06:00:36;;;;;;;5.93;1.90;;;;;;;8.20;100.00;99462.22;10376409;28;20030;-76
2023/03/31 06:05:37;;;;;;;5.72;2.60;;;;;;;8.23;100.00;99461.47;10338680;28;20102;-75
2023/03/31 06:10:37;;;;;;;7.53;2.90;;;;;;;8.27;100.00;99450.31;10372558;28;20084;-75
2023/03/31 06:15:38;;;;;;;7.75;2.88;;;;;;;8.32;100.00;99453.06;10379789;28;20043;-75
2023/03/31 06:20:38;;;;;;;10.80;6.18;;;;;;;8.36;100.00;99448.00;10364029;28;20554;-76
2023/03/31 06:25:39;;;;;;;5.38;2.38;;;;;;;8.32;100.00;99440.03;10373142;28;20122;-76
2023/03/31 06:30:39;;;;;;;14.05;5.10;;;;;;;8.29;100.00;99437.31;10392756;28;20044;-76
2023/03/31 06:35:40;;;;;;;8.07;3.13;;;;;;;8.31;100.00;99438.25;10374741;28;20049;-77
2023/03/31 06:40:41;;;;;;;9.95;2.00;;;;;;;8.32;100.00;99429.59;10362009;28;20044;-76
2023/03/31 06:45:41;;;;;;;15.30;10.18;;;;;;;8.41;100.00;99431.63;10359540;28;20052;-77
2023/03/31 06:50:43;;;;;;;10.48;3.13;;;;;;;8.41;100.00;99424.69;10375449;28;20127;-77
2023/03/31 06:55:44;;;;;;;5.40;2.95;;;;;;;8.40;100.00;99420.31;10358882;28;20188;-76
2023/03/31 07:00:44;;;;;;;8.30;2.97;;;;;;;8.47;100.00;99426.63;10360165;28;20052;-76
2023/03/31 07:05:49;;;;;;;8.65;2.53;;;;;;;8.51;100.00;99395.50;10358301;28;20054;-76
2023/03/31 07:10:54;;;;;;;6.55;2.40;;;;;;;8.56;100.00;99382.63;10394599;28;20042;-75
2023/03/31 07:15:55;;;;;;;12.18;2.70;;;;;;;8.71;100.00;99382.22;10355364;28;20034;-75
2023/03/31 07:20:55;;;;;;;231.27;91.15;;;;;;;8.98;100.00;99380.41;10317779;28;20133;-76
2023/03/31 07:26:01;;;;;;;241.25;61.25;;;;;;;9.24;100.00;99374.25;10320325;28;20104;-77
2023/03/31 07:31:01;;;;;;;55.63;19.77;;;;;;;9.49;100.00;99374.03;10399268;28;20393;-76
2023/03/31 07:36:05;;;;;;;10.98;2.55;;;;;;;9.76;100.00;99358.25;10358190;28;20068;-77
2023/03/31 07:41:09;;;;;;;22.88;6.00;;;;;;;9.92;100.00;99349.06;10359336;28;20042;-78
2023/03/31 07:46:18;;;;;;;17.13;5.75;;;;;;;9.86;100.00;99348.06;10325565;28;20074;-78
2023/03/31 07:51:20;;;;;;;50.75;17.30;;;;;;;9.73;100.00;99347.72;10359715;28;20038;-77
2023/03/31 07:56:21;;;;;;;;;;;;;;;9.64;100.00;99358.78;10358486;28;20042;-76
2023/03/31 08:01:24;;;;;;;21.25;9.60;;;;;;;9.59;100.00;99346.47;10358724;28;19917;-77
2023/03/31 08:06:25;;;;;;;36.33;10.82;;;;;;;9.56;100.00;99352.47;10361040;28;20038;-77
2023/03/31 08:11:26;;;;;;;18.73;6.00;;;;;;;9.66;100.00;99351.03;10333496;28;20036;-76
2023/03/31 08:16:26;;;;;;;10.18;3.22;;;;;;;9.80;100.00;99343.53;10365652;28;20045;-77
2023/03/31 08:21:28;;;;;;;17.15;8.13;;;;;;;9.95;100.00;99336.09;10367141;28;20113;-76
2023/03/31 08:26:30;;;;;;;11.75;3.10;;;;;;;10.09;100.00;99341.69;10325344;28;20049;-77
2023/03/31 08:31:31;;;;;;;12.85;5.82;;;;;;;10.28;100.00;99342.13;10325343;28;20126;-78
2023/03/31 08:36:32;;;;;;;47.45;14.90;;;;;;;10.58;100.00;99321.06;10356878;28;20033;-77
2023/03/31 08:41:38;;;;;;;11.68;5.07;;;;;;;10.93;100.00;99319.19;10346858;28;20030;-76
2023/03/31 08:46:39;;;;;;;10.77;3.50;;;;;;;11.23;100.00;99305.88;10361875;28;20081;-77
2023/03/31 08:51:40;;;;;;;17.08;5.10;;;;;;;11.56;100.00;99299.50;10379684;28;20149;-77
2023/03/31 08:56:42;;;;;;;12.23;4.53;;;;;;;11.43;100.00;99301.00;10376915;28;20037;-77
2023/03/31 09:01:45;;;;;;;16.80;4.90;;;;;;;11.22;100.00;99303.19;10379207;28;20038;-78
2023/03/31 09:07:01;;;;;;;9.43;3.17;;;;;;;10.79;100.00;99314.53;10365555;28;20124;-77
2023/03/31 09:12:09;;;;;;;11.80;3.83;;;;;;;10.68;100.00;99323.91;10364000;28;20485;-78
2023/03/31 09:17:29;;;;;;;17.70;4.45;;;;;;;11.08;100.00;99306.44;10347957;28;20038;-75
2023/03/31 09:22:39;;;;;;;13.82;4.07;;;;;;;11.45;100.00;99294.06;10362807;28;20077;-75
2023/03/31 09:27:41;;;;;;;15.75;5.20;;;;;;;11.59;100.00;99304.81;10339490;28;20437;-76
2023/03/31 09:32:41;;;;;;;12.85;3.45;;;;;;;12.09;100.00;99284.72;10395151;28;20038;-76
2023/03/31 09:37:42;;;;;;;17.58;3.97;;;;;;;12.85;100.00;99274.44;10330204;28;20060;-76
2023/03/31 09:42:43;;;;;;;17.27;4.53;;;;;;;13.64;100.00;99275.31;10323538;28;20034;-76
2023/03/31 09:47:45;;;;;;;17.15;3.90;;;;;;;13.82;100.00;99256.22;10338918;28;20074;-76
2023/03/31 09:52:56;;;;;;;17.83;4.47;;;;;;;13.77;100.00;99261.44;10337390;28;20031;-76
2023/03/31 09:57:59;;;;;;;15.10;3.95;;;;;;;12.73;100.00;99275.13;10344788;28;20061;-75
2023/03/31 10:03:06;;;;;;;16.85;4.20;;;;;;;11.73;100.00;99286.69;10324045;28;20049;-76
2023/03/31 10:08:18;;;;;;;7.88;2.42;;;;;;;11.56;100.00;99291.66;10344498;28;20359;-76
2023/03/31 10:13:28;;;;;;;12.43;2.47;;;;;;;11.94;100.00;99281.81;10343966;28;20056;-76
2023/03/31 10:18:33;;;;;;;9.50;3.20;;;;;;;11.90;100.00;99281.75;10360807;28;20132;-76
2023/03/31 10:23:34;;;;;;;6.05;2.10;;;;;;;12.05;100.00;99272.41;10376892;28;20116;-76
2023/03/31 10:28:35;;;;;;;9.10;2.58;;;;;;;12.37;100.00;99261.53;10359080;28;20026;-76
2023/03/31 10:33:40;;;;;;;8.63;1.98;;;;;;;12.41;100.00;99262.44;10361003;28;20049;-77
2023/03/31 10:38:43;;;;;;;6.30;2.78;;;;;;;12.49;100.00;99252.94;10359830;28;20502;-76
2023/03/31 10:43:49;;;;;;;6.57;3.17;;;;;;;13.46;100.00;99245.38;10292972;28;20046;-76
2023/03/31 10:48:49;;;;;;;8.15;3.15;;;;;;;15.12;100.00;99233.31;10356928;28;20037;-77
2023/03/31 10:53:51;;;;;;;8.63;1.73;;;;;;;14.63;100.00;99248.88;10375392;28;20042;-76
2023/03/31 10:59:19;;;;;;;6.32;2.22;;;;;;;14.19;100.00;99238.09;10357837;28;20034;-77
2023/03/31 11:04:28;;;;;;;9.07;1.85;;;;;;;13.82;100.00;99219.41;10370908;28;20493;-76
2023/03/31 11:09:41;;;;;;;10.98;3.20;;;;;;;14.66;100.00;99225.22;10318878;28;20038;-76
2023/03/31 11:15:00;;;;;;;;;;;;;;;14.58;100.00;99204.09;10338993;28;20053;-77
2023/03/31 11:20:11;;;;;;;11.85;2.50;;;;;;;13.81;100.00;99212.41;10281046;28;20285;-77
2023/03/31 11:25:34;;;;;;;6.22;2.20;;;;;;;12.60;100.00;99209.34;10363416;28;20478;-76
2023/03/31 11:30:53;;;;;;;9.50;3.17;;;;;;;11.93;100.00;99215.38;10358718;28;20132;-76
2023/03/31 11:36:10;;;;;;;16.33;4.70;;;;;;;11.54;100.00;99226.97;10360120;28;20046;-76
2023/03/31 11:41:13;;;;;;;11.85;3.22;;;;;;;12.33;100.00;99218.63;10370240;28;20626;-76
2023/03/31 11:46:19;;;;;;;7.65;3.22;;;;;;;12.93;100.00;99202.75;10355544;28;20506;-76
2023/03/31 11:51:22;;;;;;;9.57;2.97;;;;;;;13.24;100.00;99196.97;10372544;28;20045;-76
2023/03/31 11:56:25;;;;;;;10.95;3.00;;;;;;;13.43;100.00;99192.78;10355433;28;20111;-76
2023/03/31 12:01:32;;;;;;;11.85;2.13;;;;;;;14.38;100.00;99175.06;10357396;28;20397;-76
2023/03/31 12:06:35;;;;;;;13.07;3.63;;;;;;;14.16;100.00;99161.78;10371962;28;20050;-76
2023/03/31 12:12:13;;;;;;;9.80;3.13;;;;;;;13.83;100.00;99167.69;10355588;28;20147;-76
2023/03/31 12:17:18;;;;;;;10.27;2.75;;;;;;;13.05;100.00;99160.00;10380063;28;20521;-76
2023/03/31 12:22:32;;;;;;;8.43;2.55;;;;;;;13.28;100.00;99146.22;10382777;28;20426;-76
2023/03/31 12:27:43;;;;;;;12.68;3.88;;;;;;;13.49;100.00;99129.75;10376455;28;20117;-76
2023/03/31 12:33:10;;;;;;;9.55;2.63;;;;;;;13.13;100.00;99141.69;10412240;28;20045;-76
2023/03/31 12:38:26;;;;;;;9.40;3.05;;;;;;;13.03;100.00;99139.81;10349618;28;20501;-76
2023/03/31 12:43:41;;;;;;;9.68;3.88;;;;;;;13.09;100.00;99118.00;10356511;28;20043;-76
2023/03/31 12:49:23;;;;;;;7.13;3.08;;;;;;;13.62;100.00;99109.72;10385349;28;20060;-76
2023/03/31 12:54:51;;;;;;;10.60;1.77;;;;;;;14.09;100.00;99112.63;10333260;28;20049;-76
2023/03/31 13:00:12;;;;;;;6.45;1.80;;;;;;;13.74;100.00;99108.06;10364460;28;20068;-76
2023/03/31 13:05:35;;;;;;;6.70;3.10;;;;;;;13.72;100.00;99087.00;10363845;28;20540;-76
2023/03/31 13:10:57;;;;;;;8.63;2.63;;;;;;;13.29;100.00;99105.94;10362519;28;20065;-76
2023/03/31 13:15:58;;;;;;;9.23;2.75;;;;;;;13.77;100.00;99089.66;10381509;28;20548;-77
2023/03/31 13:21:00;;;;;;;7.82;2.28;;;;;;;13.84;100.00;99067.78;10373950;28;20153;-76
2023/03/31 13:26:00;;;;;;;8.18;2.08;;;;;;;13.80;100.00;99059.00;10389196;28;20091;-76
2023/03/31 13:31:05;;;;;;;8.40;2.47;;;;;;;13.68;100.00;99066.81;10388374;28;20098;-77
2023/03/31 13:36:11;;;;;;;11.25;3.08;;;;;;;12.79;100.00;99073.09;10402375;28;20049;-77
2023/03/31 13:41:30;;;;;;;5.43;2.00;;;;;;;11.87;100.00;99100.84;10406673;28;20041;-77
2023/03/31 13:46:40;;;;;;;8.02;2.85;;;;;;;11.45;100.00;99117.69;10345277;28;20485;-76
2023/03/31 13:52:00;;;;;;;4.20;1.50;;;;;;;11.41;100.00;99113.25;10364312;28;20042;-76
2023/03/31 13:57:03;;;;;;;4.72;1.85;;;;;;;11.11;100.00;99122.34;10323279;28;20064;-76
2023/03/31 14:02:39;;;;;;;10.43;2.88;;;;;;;10.80;100.00;99119.19;10323741;28;20421;-77
2023/03/31 14:07:44;;;;;;;15.43;2.95;;;;;;;11.33;100.00;99123.59;10264461;28;20086;-77
2023/03/31 14:12:47;;;;;;;7.70;3.90;;;;;;;11.70;100.00;99120.69;10314871;28;20073;-76
2023/03/31 14:17:47;;;;;;;6.95;2.13;;;;;;;12.28;100.00;99099.63;10320112;28;20169;-76
2023/03/31 14:23:12;;;;;;;8.80;3.13;;;;;;;13.27;100.00;99112.94;10321597;28;20448;-78
2023/03/31 14:28:40;;;;;;;7.72;3.95;;;;;;;12.80;100.00;99098.47;10360057;28;20435;-77
2023/03/31 14:33:52;;;;;;;5.45;2.53;;;;;;;12.42;100.00;99096.31;10302508;28;20096;-76
2023/03/31 14:38:53;;;;;;;;;;;;;;;12.61;100.00;99076.41;10361645;28;20038;-77
2023/03/31 14:43:53;;;;;;;4.43;1.55;;;;;;;12.52;100.00;99078.94;10347552;28;19921;-75
2023/03/31 14:48:54;;;;;;;10.77;2.25;;;;;;;12.53;100.00;99071.06;10356841;28;20046;-77
2023/03/31 14:53:58;;;;;;;5.35;2.38;;;;;;;12.35;100.00;99071.75;10359693;28;20121;-78
2023/03/31 14:58:58;;;;;;;6.10;1.80;;;;;;;12.00;100.00;99082.69;10360912;28;20359;-80
2023/03/31 15:03:59;;;;;;;4.82;1.92;;;;;;;11.68;100.00;99064.75;10358042;28;20124;-78
2023/03/31 15:09:01;;;;;;;4.70;1.25;;;;;;;11.56;100.00;99057.56;10359244;28;20429;-77
2023/03/31 15:14:02;;;;;;;6.15;2.05;;;;;;;11.35;100.00;99055.53;10357659;28;20049;-78
2023/03/31 15:19:10;;;;;;;12.93;1.50;;;;;;;11.13;100.00;99063.03;10361897;28;20126;-76
2023/03/31 15:24:19;;;;;;;3.25;1.00;;;;;;;11.26;100.00;99062.38;10343352;28;20030;-77
2023/03/31 15:29:22;;;;;;;2.72;0.88;;;;;;;11.31;100.00;99068.56;10332594;28;20038;-76
2023/03/31 15:34:32;;;;;;;1.67;0.80;;;;;;;11.29;100.00;99058.91;10334189;28;20044;-78
2023/03/31 15:39:32;;;;;;;2.78;1.00;;;;;;;11.08;100.00;99065.56;10336914;28;20038;-78
2023/03/31 15:44:45;;;;;;;2.80;1.02;;;;;;;10.76;100.00;99089.44;10337665;28;20046;-79
2023/03/31 15:50:06;;;;;;;6.82;1.42;;;;;;;10.39;100.00;99078.25;10355401;28;20088;-77
2023/03/31 15:55:21;;;;;;;2.10;0.55;;;;;;;10.34;100.00;99074.66;10355506;28;20065;-75
2023/03/31 16:00:44;;;;;;;4.68;1.77;;;;;;;10.37;100.00;99062.53;10386024;28;20092;-76
2023/03/31 16:05:55;;;;;;;3.25;0.85;;;;;;;10.30;100.00;99071.13;10348562;28;20034;-76
2023/03/31 16:11:01;;;;;;;3.00;0.70;;;;;;;10.16;100.00;99068.19;10346471;28;20037;-77
2023/03/31 16:16:04;;;;;;;4.20;1.27;;;;;;;10.06;100.00;99084.53;10354676;28;20437;-77
2023/03/31 16:21:04;;;;;;;3.85;1.17;;;;;;;9.91;100.00;99069.44;10368266;28;20452;-76
2023/03/31 16:26:05;;;;;;;7.13;1.13;;;;;;;9.70;100.00;99081.19;10349508;28;20038;-77
2023/03/31 16:31:33;;;;;;;1.67;0.80;;;;;;;9.59;100.00;99093.97;10344950;28;20112;-76
2023/03/31 16:36:33;;;;;;;2.05;0.80;;;;;;;9.39;100.00;99089.16;10374343;28;20072;-76
2023/03/31 16:41:35;;;;;;;1.50;0.60;;;;;;;9.26;100.00;99087.13;10352299;28;20056;-75
2023/03/31 16:46:36;;;;;;;2.80;1.35;;;;;;;9.19;100.00;99082.59;10362406;28;20052;-76
2023/03/31 16:51:36;;;;;;;3.78;1.30;;;;;;;9.19;100.00;99087.81;10361681;28;20596;-78
2023/03/31 16:56:37;;;;;;;4.03;2.25;;;;;;;9.22;100.00;99085.28;10363291;28;20065;-78
2023/03/31 17:01:39;;;;;;;5.28;2.10;;;;;;;9.26;100.00;99084.50;10364771;28;20132;-76
2023/03/31 17:06:41;;;;;;;8.75;1.55;;;;;;;9.31;100.00;99079.41;10345923;28;20048;-75
2023/03/31 17:11:41;;;;;;;8.45;0.90;;;;;;;9.42;100.00;99077.03;10351275;28;20030;-76
2023/03/31 17:16:42;;;;;;;5.93;2.03;;;;;;;9.38;100.00;99079.56;10397681;28;20038;-78
2023/03/31 17:21:43;;;;;;;6.90;3.33;;;;;;;9.36;100.00;99077.78;10366542;28;20481;-78
2023/03/31 17:26:43;;;;;;;3.15;1.38;;;;;;;9.29;100.00;99071.53;10371550;28;20050;-77
2023/03/31 17:31:44;;;;;;;4.90;2.35;;;;;;;9.16;100.00;99072.06;10362575;28;20117;-76
2023/03/31 17:36:45;;;;;;;7.40;3.05;;;;;;;9.06;100.00;99065.75;10394076;28;20054;-76
2023/03/31 17:41:45;;;;;;;3.03;1.20;;;;;;;9.02;100.00;99051.72;10362193;28;20069;-76
2023/03/31 17:46:46;;;;;;;5.25;2.03;;;;;;;8.96;100.00;99062.03;10364805;28;20088;-76
2023/03/31 17:51:46;;;;;;;5.53;2.05;;;;;;;8.94;100.00;99053.28;10395602;28;20117;-76
2023/03/31 17:56:49;;;;;;;4.10;2.17;;;;;;;8.98;100.00;99057.72;10322147;28;20556;-77
2023/03/31 18:01:50;;;;;;;12.32;2.40;;;;;;;9.03;100.00;99045.66;10335791;28;20042;-78
2023/03/31 18:06:50;;;;;;;4.93;1.88;;;;;;;9.15;100.00;99044.19;10360467;28;20132;-76
2023/03/31 18:11:52;;;;;;;9.30;2.35;;;;;;;9.29;100.00;99044.56;10304096;28;20078;-76
2023/03/31 18:16:53;;;;;;;3.65;1.92;;;;;;;9.41;100.00;99039.63;10319982;28;20034;-76
2023/03/31 18:21:53;;;;;;;4.22;1.65;;;;;;;9.46;100.00;99043.22;10321072;28;20046;-77
2023/03/31 18:26:54;;;;;;;6.22;2.47;;;;;;;9.62;100.00;99043.56;10321737;28;20054;-76
2023/03/31 18:31:54;;;;;;;4.40;1.40;;;;;;;9.58;100.00;99055.66;10365201;28;20124;-77
2023/03/31 18:36:55;;;;;;;1.13;0.70;;;;;;;9.45;100.00;99048.38;10361321;28;20590;-77
2023/03/31 18:41:57;;;;;;;4.22;1.88;;;;;;;9.30;100.00;99064.59;10377180;28;20125;-77
2023/03/31 18:46:57;;;;;;;7.28;2.05;;;;;;;9.12;100.00;99071.13;10359677;28;20037;-78
2023/03/31 18:51:58;;;;;;;7.30;2.05;;;;;;;8.96;100.00;99073.34;10356838;28;20152;-75
2023/03/31 18:57:00;;;;;;;4.00;1.23;;;;;;;8.82;100.00;99082.56;10349000;28;20037;-76
2023/03/31 19:02:00;;;;;;;11.80;1.98;;;;;;;8.74;100.00;99082.34;10385000;28;20149;-75
2023/03/31 19:07:01;;;;;;;6.65;1.50;;;;;;;8.60;100.00;99091.53;10361064;28;20052;-76
2023/03/31 19:12:02;;;;;;;6.72;1.75;;;;;;;8.53;100.00;99090.47;10360595;28;20125;-76
2023/03/31 19:17:03;;;;;;;4.05;1.83;;;;;;;8.49;100.00;99086.03;10373510;28;20065;-76
2023/03/31 19:22:03;;;;;;;4.70;1.48;;;;;;;8.61;100.00;99091.56;10358772;28;20041;-76
2023/03/31 19:27:04;;;;;;;8.18;2.03;;;;;;;8.58;100.00;99082.78;10361241;28;20048;-75
2023/03/31 19:32:05;;;;;;;7.63;2.17;;;;;;;8.70;100.00;99075.28;10361735;28;20127;-75
2023/03/31 19:37:06;;;;;;;5.75;2.47;;;;;;;8.75;100.00;99093.66;10374377;28;20038;-75
2023/03/31 19:42:06;;;;;;;8.48;2.55;;;;;;;8.81;100.00;99086.00;10391373;28;20044;-76
2023/03/31 19:47:07;;;;;;;9.80;3.38;;;;;;;8.78;100.00;99094.63;10356477;28;20044;-76
2023/03/31 19:52:07;;;;;;;5.28;2.30;;;;;;;8.76;100.00;99083.25;10363369;28;20133;-75
2023/03/31 19:57:08;;;;;;;7.45;1.52;;;;;;;8.79;100.00;99090.31;10358204;28;20545;-76
2023/03/31 20:02:11;;;;;;;6.32;1.85;;;;;;;8.85;100.00;99084.34;10363524;28;20122;-76
2023/03/31 20:07:12;;;;;;;6.25;2.65;;;;;;;8.80;100.00;99087.72;10383811;28;20429;-76
2023/03/31 20:12:12;;;;;;;4.68;1.73;;;;;;;8.79;100.00;99099.00;10363298;28;20041;-76
2023/03/31 20:17:14;;;;;;;6.32;4.43;;;;;;;8.71;100.00;99091.81;10399636;28;20125;-75
2023/03/31 20:22:14;;;;;;;7.47;1.75;;;;;;;8.58;100.00;99091.50;10397974;28;20075;-75
2023/03/31 20:27:15;;;;;;;6.13;2.60;;;;;;;8.55;100.00;99087.91;10349575;28;20120;-75
2023/03/31 20:32:16;;;;;;;8.93;2.65;;;;;;;8.63;100.00;99084.69;10365795;28;20099;-76
2023/03/31 20:37:17;;;;;;;10.13;2.55;;;;;;;8.70;100.00;99077.00;10365674;28;20050;-75
2023/03/31 20:42:17;;;;;;;7.78;2.85;;;;;;;8.75;100.00;99076.28;10364034;28;20077;-76
2023/03/31 20:47:18;;;;;;;13.13;2.40;;;;;;;8.77;100.00;99065.91;10364145;28;20041;-75
2023/03/31 20:52:18;;;;;;;5.22;1.92;;;;;;;8.81;100.00;99054.69;10350368;28;20040;-74
2023/03/31 20:57:19;;;;;;;8.88;2.83;;;;;;;8.66;100.00;99068.22;10381384;28;20537;-75
2023/03/31 21:02:19;;;;;;;5.38;2.53;;;;;;;8.65;100.00;99072.56;10380899;28;20505;-75
2023/03/31 21:07:20;;;;;;;9.98;3.33;;;;;;;8.63;100.00;99062.91;10367275;28;20587;-75
2023/03/31 21:12:20;;;;;;;9.35;2.00;;;;;;;8.58;100.00;99074.94;10363973;28;20124;-75
2023/03/31 21:17:21;;;;;;;6.38;2.63;;;;;;;8.51;100.00;99061.75;10366852;28;20041;-75
2023/03/31 21:22:21;;;;;;;9.63;3.22;;;;;;;8.47;100.00;99072.91;10360731;28;20549;-75
2023/03/31 21:27:22;;;;;;;5.43;2.40;;;;;;;8.38;100.00;99076.16;10362658;28;20053;-75
2023/03/31 21:32:22;;;;;;;7.60;2.28;;;;;;;8.32;100.00;99072.47;10364431;28;20061;-75
2023/03/31 21:37:26;;;;;;;5.75;2.22;;;;;;;8.26;100.00;99073.19;10362855;28;20081;-75
2023/03/31 21:42:26;;;;;;;6.20;2.58;;;;;;;8.17;100.00;99068.59;10362207;28;20740;-74
2023/03/31 21:47:27;;;;;;;8.52;2.17;;;;;;;8.13;100.00;99061.53;10378457;28;20146;-75
2023/03/31 21:52:28;;;;;;;7.15;1.60;;;;;;;8.17;100.00;99063.38;10388898;28;20042;-75
2023/03/31 21:57:29;;;;;;;6.38;3.33;;;;;;;8.18;100.00;99064.28;10378110;28;20034;-76
2023/03/31 22:02:30;;;;;;;8.80;3.08;;;;;;;8.17;100.00;99068.59;10355553;28;20137;-76
2023/03/31 22:07:31;;;;;;;8.15;1.42;;;;;;;8.19;100.00;99047.81;10323042;28;20544;-77
2023/03/31 22:12:31;;;;;;;7.25;1.50;;;;;;;8.13;100.00;99053.72;10322193;28;20034;-76
2023/03/31 22:17:33;;;;;;;7.13;2.42;;;;;;;8.11;100.00;99055.41;10321917;28;20093;-76
2023/03/31 22:22:36;;;;;;;6.30;2.30;;;;;;;8.06;100.00;99059.59;10325417;28;20034;-77
2023/03/31 22:27:37;;;;;;;4.20;1.67;;;;;;;8.03;100.00;99064.72;10359297;28;20065;-76
2023/03/31 22:32:38;;;;;;;8.05;3.10;;;;;;;7.99;100.00;99055.03;10342878;28;20038;-75
2023/03/31 22:37:38;;;;;;;6.85;1.88;;;;;;;7.99;100.00;99068.97;10391799;28;20054;-76
2023/03/31 22:42:39;;;;;;;8.13;2.58;;;;;;;8.01;100.00;99075.09;10362644;28;20184;-75
2023/03/31 22:47:41;;;;;;;4.68;1.52;;;;;;;7.98;100.00;99063.69;10375539;28;20026;-75
2023/03/31 22:52:41;;;;;;;4.78;2.28;;;;;;;7.98;100.00;99076.72;10359976;28;20128;-76
2023/03/31 22:57:42;;;;;;;5.47;2.45;;;;;;;7.97;100.00;99075.84;10376626;28;20499;-76
2023/03/31 23:02:42;;;;;;;7.13;1.40;;;;;;;7.99;100.00;99060.25;10360052;28;20121;-76
2023/03/31 23:07:43;;;;;;;7.20;1.60;;;;;;;7.96;100.00;99081.91;10360393;28;20069;-75
2023/03/31 23:12:44;;;;;;;7.63;2.10;;;;;;;7.93;100.00;99064.44;10343192;28;20062;-76
2023/03/31 23:17:44;;;;;;;6.60;2.58;;;;;;;7.97;100.00;99062.81;10343212;28;20057;-75
2023/03/31 23:22:45;;;;;;;6.03;1.90;;;;;;;7.95;100.00;99056.69;10360863;28;20125;-76
2023/03/31 23:27:46;;;;;;;6.07;1.48;;;;;;;8.02;100.00;99065.56;10357875;28;20544;-76